sensor_id;sensor_type;location;lat;lon;timestamp;pressure;altitude;pressure_sealevel;temperature;humidity
57102;BME280;42982;54.558;18.508;2022-09-03T00:00:17;101647.88;;;15.33;63.62
57102;BME280;42982;54.558;18.508;2022-09-03T00:01:39;101648.69;;;15.28;63.14
57102;BME280;42982;54.558;18.508;2022-09-03T00:02:59;101657.97;;;15.22;63.38
57102;BME280;42982;54.558;18.508;2022-09-03T00:04:09;101663.91;;;15.24;62.68
57102;BME280;42982;54.558;18.508;2022-09-03T00:05:28;101665.81;;;15.23;62.58
57102;BME280;42982;54.558;18.508;2022-09-03T00:06:47;101663.38;;;15.22;62.72
57102;BME280;42982;54.558;18.508;2022-09-03T00:08:16;101658.19;;;15.25;63.21
57102;BME280;42982;54.558;18.508;2022-09-03T00:09:35;101660.34;;;15.28;62.53
57102;BME280;42982;54.558;18.508;2022-09-03T00:10:55;101658.72;;;15.27;62.76
57102;BME280;42982;54.558;18.508;2022-09-03T00:12:15;101660.41;;;15.23;62.20
57102;BME280;42982;54.558;18.508;2022-09-03T00:13:27;101647.69;;;15.19;61.66
57102;BME280;42982;54.558;18.508;2022-09-03T00:14:36;101653.09;;;15.19;61.97
57102;BME280;42982;54.558;18.508;2022-09-03T00:15:50;101654.19;;;15.18;61.44
57102;BME280;42982;54.558;18.508;2022-09-03T00:18:46;101659.09;;;15.16;60.93
57102;BME280;42982;54.558;18.508;2022-09-03T00:19:56;101648.25;;;15.16;60.88
57102;BME280;42982;54.558;18.508;2022-09-03T00:21:10;101655.88;;;15.14;61.17
57102;BME280;42982;54.558;18.508;2022-09-03T00:22:23;101652.09;;;15.10;61.14
57102;BME280;42982;54.558;18.508;2022-09-03T00:23:30;101652.09;;;15.10;61.30
57102;BME280;42982;54.558;18.508;2022-09-03T00:24:35;101658.59;;;15.09;61.07
57102;BME280;42982;54.558;18.508;2022-09-03T00:25:58;101649.38;;;15.10;61.06
57102;BME280;42982;54.558;18.508;2022-09-03T00:27:10;101649.91;;;15.12;61.11
57102;BME280;42982;54.558;18.508;2022-09-03T00:28:22;101651.00;;;15.11;60.32
57102;BME280;42982;54.558;18.508;2022-09-03T00:30:20;101648.81;;;15.13;60.44
57102;BME280;42982;54.558;18.508;2022-09-03T00:31:24;101648.53;;;15.14;60.40
57102;BME280;42982;54.558;18.508;2022-09-03T00:32:44;101646.94;;;15.13;60.05
57102;BME280;42982;54.558;18.508;2022-09-03T00:34:08;101652.06;;;15.15;60.26
57102;BME280;42982;54.558;18.508;2022-09-03T00:35:24;101649.66;;;15.13;60.50
57102;BME280;42982;54.558;18.508;2022-09-03T00:36:40;101643.97;;;15.10;60.49
57102;BME280;42982;54.558;18.508;2022-09-03T00:37:43;101646.97;;;15.08;60.65
57102;BME280;42982;54.558;18.508;2022-09-03T00:38:51;101651.81;;;15.11;60.92
57102;BME280;42982;54.558;18.508;2022-09-03T00:40:07;101654.00;;;15.09;61.00
57102;BME280;42982;54.558;18.508;2022-09-03T00:41:37;101658.28;;;15.15;60.66
57102;BME280;42982;54.558;18.508;2022-09-03T00:42:53;101658.53;;;15.19;60.43
57102;BME280;42982;54.558;18.508;2022-09-03T00:45:39;101655.22;;;15.27;60.68
57102;BME280;42982;54.558;18.508;2022-09-03T00:49:31;101663.63;;;15.25;60.57
57102;BME280;42982;54.558;18.508;2022-09-03T00:50:08;101670.44;;;15.23;60.20
57102;BME280;42982;54.558;18.508;2022-09-03T00:51:52;101662.31;;;15.23;60.51
57102;BME280;42982;54.558;18.508;2022-09-03T00:56:41;101670.13;;;15.24;60.11
57102;BME280;42982;54.558;18.508;2022-09-03T00:59:45;101668.31;;;15.15;60.40
57102;BME280;42982;54.558;18.508;2022-09-03T01:00:53;101671.50;;;15.22;60.22
57102;BME280;42982;54.558;18.508;2022-09-03T01:03:27;101673.09;;;15.28;60.43
57102;BME280;42982;54.558;18.508;2022-09-03T01:10:43;101673.25;;;15.42;59.81
57102;BME280;42982;54.558;18.508;2022-09-03T01:15:08;101672.13;;;15.48;63.37
57102;BME280;42982;54.558;18.508;2022-09-03T01:16:52;101677.00;;;15.46;64.25
57102;BME280;42982;54.558;18.508;2022-09-03T01:21:09;101661.13;;;15.34;65.48
57102;BME280;42982;54.558;18.508;2022-09-03T01:30:51;101670.47;;;15.18;66.32
57102;BME280;42982;54.558;18.508;2022-09-03T01:32:29;101672.59;;;15.21;65.99
57102;BME280;42982;54.558;18.508;2022-09-03T01:33:55;101688.88;;;15.16;66.53
57102;BME280;42982;54.558;18.508;2022-09-03T01:36:32;101682.72;;;15.10;66.41
57102;BME280;42982;54.558;18.508;2022-09-03T01:38:02;101684.09;;;15.07;66.59
57102;BME280;42982;54.558;18.508;2022-09-03T01:45:50;101683.38;;;14.87;66.95
57102;BME280;42982;54.558;18.508;2022-09-03T01:47:08;101677.72;;;14.88;67.10
57102;BME280;42982;54.558;18.508;2022-09-03T01:49:42;101687.44;;;14.89;67.08
57102;BME280;42982;54.558;18.508;2022-09-03T01:51:04;101691.75;;;14.90;66.78
57102;BME280;42982;54.558;18.508;2022-09-03T01:52:18;101691.25;;;14.88;66.81
57102;BME280;42982;54.558;18.508;2022-09-03T01:56:10;101693.50;;;14.71;67.42
57102;BME280;42982;54.558;18.508;2022-09-03T01:57:46;101694.53;;;14.75;67.10
57102;BME280;42982;54.558;18.508;2022-09-03T01:59:10;101696.50;;;14.69;67.62
57102;BME280;42982;54.558;18.508;2022-09-03T02:00:25;101700.00;;;14.70;67.61
57102;BME280;42982;54.558;18.508;2022-09-03T02:01:42;101696.72;;;14.73;67.38
57102;BME280;42982;54.558;18.508;2022-09-03T02:02:48;101692.38;;;14.72;67.44
57102;BME280;42982;54.558;18.508;2022-09-03T02:03:52;101700.56;;;14.67;68.02
57102;BME280;42982;54.558;18.508;2022-09-03T02:05:19;101699.19;;;14.69;67.63
57102;BME280;42982;54.558;18.508;2022-09-03T02:06:33;101700.56;;;14.62;68.14
57102;BME280;42982;54.558;18.508;2022-09-03T02:08:01;101695.19;;;14.56;68.70
57102;BME280;42982;54.558;18.508;2022-09-03T02:09:04;101694.09;;;14.52;68.62
57102;BME280;42982;54.558;18.508;2022-09-03T02:10:15;101697.09;;;14.51;68.59
57102;BME280;42982;54.558;18.508;2022-09-03T02:11:18;101697.88;;;14.46;69.19
57102;BME280;42982;54.558;18.508;2022-09-03T02:12:21;101688.69;;;14.47;68.69
57102;BME280;42982;54.558;18.508;2022-09-03T02:13:31;101686.00;;;14.47;68.85
57102;BME280;42982;54.558;18.508;2022-09-03T02:14:39;101684.09;;;14.43;69.20
57102;BME280;42982;54.558;18.508;2022-09-03T02:15:43;101677.59;;;14.44;69.50
57102;BME280;42982;54.558;18.508;2022-09-03T02:16:51;101682.50;;;14.42;69.45
57102;BME280;42982;54.558;18.508;2022-09-03T02:17:57;101680.06;;;14.40;69.59
57102;BME280;42982;54.558;18.508;2022-09-03T02:19:05;101678.44;;;14.39;69.72
57102;BME280;42982;54.558;18.508;2022-09-03T02:20:19;101675.72;;;14.39;69.52
57102;BME280;42982;54.558;18.508;2022-09-03T02:21:31;101679.25;;;14.40;69.41
57102;BME280;42982;54.558;18.508;2022-09-03T02:22:44;101672.78;;;14.35;69.98
57102;BME280;42982;54.558;18.508;2022-09-03T02:23:51;101670.88;;;14.36;69.66
57102;BME280;42982;54.558;18.508;2022-09-03T02:24:53;101668.16;;;14.36;69.71
57102;BME280;42982;54.558;18.508;2022-09-03T02:26:00;101677.91;;;14.37;69.73
57102;BME280;42982;54.558;18.508;2022-09-03T02:27:04;101673.31;;;14.37;69.58
57102;BME280;42982;54.558;18.508;2022-09-03T02:28:07;101670.88;;;14.36;69.57
57102;BME280;42982;54.558;18.508;2022-09-03T02:29:16;101674.97;;;14.28;69.79
57102;BME280;42982;54.558;18.508;2022-09-03T02:30:23;101670.38;;;14.24;69.80
57102;BME280;42982;54.558;18.508;2022-09-03T02:31:25;101676.84;;;14.28;69.94
57102;BME280;42982;54.558;18.508;2022-09-03T02:32:27;101677.69;;;14.28;69.92
57102;BME280;42982;54.558;18.508;2022-09-03T02:33:35;101670.63;;;14.27;69.89
57102;BME280;42982;54.558;18.508;2022-09-03T02:34:43;101676.59;;;14.24;69.99
57102;BME280;42982;54.558;18.508;2022-09-03T02:35:47;101674.19;;;14.23;70.17
57102;BME280;42982;54.558;18.508;2022-09-03T02:36:51;101669.81;;;14.22;69.95
57102;BME280;42982;54.558;18.508;2022-09-03T02:38:12;101670.94;;;14.21;69.99
57102;BME280;42982;54.558;18.508;2022-09-03T02:39:15;101674.19;;;14.23;70.08
57102;BME280;42982;54.558;18.508;2022-09-03T02:40:18;101673.63;;;14.21;70.26
57102;BME280;42982;54.558;18.508;2022-09-03T02:41:28;101676.06;;;14.17;70.00
57102;BME280;42982;54.558;18.508;2022-09-03T02:42:33;101680.13;;;14.20;70.19
57102;BME280;42982;54.558;18.508;2022-09-03T02:46:20;101676.88;;;14.18;70.05
57102;BME280;42982;54.558;18.508;2022-09-03T02:47:27;101675.28;;;14.17;70.08
57102;BME280;42982;54.558;18.508;2022-09-03T02:48:41;101676.88;;;14.18;70.09
57102;BME280;42982;54.558;18.508;2022-09-03T02:49:43;101673.66;;;14.16;70.27
57102;BME280;42982;54.558;18.508;2022-09-03T02:50:50;101682.84;;;14.20;70.15
57102;BME280;42982;54.558;18.508;2022-09-03T02:52:00;101675.53;;;14.20;69.96
57102;BME280;42982;54.558;18.508;2022-09-03T02:53:08;101681.22;;;14.19;70.00
57102;BME280;42982;54.558;18.508;2022-09-03T02:54:23;101686.06;;;14.22;69.86
57102;BME280;42982;54.558;18.508;2022-09-03T02:55:25;101679.84;;;14.21;69.51
57102;BME280;42982;54.558;18.508;2022-09-03T02:56:30;101689.59;;;14.22;69.69
57102;BME280;42982;54.558;18.508;2022-09-03T02:57:40;101686.06;;;14.22;69.63
57102;BME280;42982;54.558;18.508;2022-09-03T02:58:44;101691.75;;;14.20;69.77
57102;BME280;42982;54.558;18.508;2022-09-03T02:59:46;101687.44;;;14.19;69.66
57102;BME280;42982;54.558;18.508;2022-09-03T03:00:48;101685.53;;;14.20;69.56
57102;BME280;42982;54.558;18.508;2022-09-03T03:01:50;101684.44;;;14.21;69.76
57102;BME280;42982;54.558;18.508;2022-09-03T03:02:54;101684.44;;;14.21;69.55
57102;BME280;42982;54.558;18.508;2022-09-03T03:04:03;101681.22;;;14.19;69.72
57102;BME280;42982;54.558;18.508;2022-09-03T03:05:14;101693.13;;;14.18;69.77
57102;BME280;42982;54.558;18.508;2022-09-03T03:06:21;101688.50;;;14.18;69.94
57102;BME280;42982;54.558;18.508;2022-09-03T03:07:27;101695.81;;;14.18;69.98
57102;BME280;42982;54.558;18.508;2022-09-03T03:08:34;101685.28;;;14.11;70.11
57102;BME280;42982;54.558;18.508;2022-09-03T03:09:40;101693.94;;;14.13;70.05
57102;BME280;42982;54.558;18.508;2022-09-03T03:10:42;101682.31;;;14.12;70.24
57102;BME280;42982;54.558;18.508;2022-09-03T03:11:48;101685.03;;;14.12;70.31
57102;BME280;42982;54.558;18.508;2022-09-03T03:12:53;101682.03;;;14.14;70.38
57102;BME280;42982;54.558;18.508;2022-09-03T03:14:02;101683.66;;;14.15;70.36
57102;BME280;42982;54.558;18.508;2022-09-03T03:15:08;101684.47;;;14.16;70.15
57102;BME280;42982;54.558;18.508;2022-09-03T03:16:19;101683.38;;;14.17;70.41
57102;BME280;42982;54.558;18.508;2022-09-03T03:17:28;101678.53;;;14.13;70.50
57102;BME280;42982;54.558;18.508;2022-09-03T03:18:31;101677.44;;;14.14;70.19
57102;BME280;42982;54.558;18.508;2022-09-03T03:19:39;101674.75;;;14.09;70.49
57102;BME280;42982;54.558;18.508;2022-09-03T03:20:43;101680.44;;;14.13;70.40
57102;BME280;42982;54.558;18.508;2022-09-03T03:21:48;101674.22;;;14.12;70.79
57102;BME280;42982;54.558;18.508;2022-09-03T03:22:54;101679.63;;;14.12;70.55
57102;BME280;42982;54.558;18.508;2022-09-03T03:24:04;101676.09;;;14.12;70.46
57102;BME280;42982;54.558;18.508;2022-09-03T03:25:12;101677.72;;;14.13;70.77
57102;BME280;42982;54.558;18.508;2022-09-03T03:26:19;101679.63;;;14.12;70.48
57102;BME280;42982;54.558;18.508;2022-09-03T03:27:26;101682.31;;;14.12;70.80
57102;BME280;42982;54.558;18.508;2022-09-03T03:28:28;101683.94;;;14.13;70.89
57102;BME280;42982;54.558;18.508;2022-09-03T03:29:39;101681.53;;;14.07;70.74
57102;BME280;42982;54.558;18.508;2022-09-03T03:30:49;101683.94;;;14.08;71.08
57102;BME280;42982;54.558;18.508;2022-09-03T03:31:53;101687.75;;;14.07;71.02
57102;BME280;42982;54.558;18.508;2022-09-03T03:32:56;101683.69;;;14.10;71.04
57102;BME280;42982;54.558;18.508;2022-09-03T03:34:01;101686.91;;;14.12;71.27
57102;BME280;42982;54.558;18.508;2022-09-03T03:35:10;101679.63;;;14.12;71.19
57102;BME280;42982;54.558;18.508;2022-09-03T03:36:13;101685.03;;;14.12;71.34
57102;BME280;42982;54.558;18.508;2022-09-03T03:37:20;101681.22;;;14.13;71.25
57102;BME280;42982;54.558;18.508;2022-09-03T03:38:30;101685.28;;;14.11;71.54
57102;BME280;42982;54.558;18.508;2022-09-03T03:39:31;101678.31;;;14.00;72.21
57102;BME280;42982;54.558;18.508;2022-09-03T03:40:37;101678.28;;;14.05;72.08
57102;BME280;42982;54.558;18.508;2022-09-03T03:41:42;101678.28;;;14.10;72.00
57102;BME280;42982;54.558;18.508;2022-09-03T03:42:49;101688.81;;;14.11;72.00
57102;BME280;42982;54.558;18.508;2022-09-03T03:43:55;101678.78;;;14.12;71.94
57102;BME280;42982;54.558;18.508;2022-09-03T03:45:00;101678.28;;;14.10;72.21
57102;BME280;42982;54.558;18.508;2022-09-03T03:46:06;101686.94;;;14.07;72.36
57102;BME280;42982;54.558;18.508;2022-09-03T03:47:20;101680.97;;;14.05;72.68
57102;BME280;42982;54.558;18.508;2022-09-03T03:48:22;101689.91;;;14.05;72.48
57102;BME280;42982;54.558;18.508;2022-09-03T03:49:24;101686.94;;;14.07;72.61
57102;BME280;42982;54.558;18.508;2022-09-03T03:50:32;101683.69;;;14.05;72.74
57102;BME280;42982;54.558;18.508;2022-09-03T03:51:35;101689.91;;;14.05;73.15
57102;BME280;42982;54.558;18.508;2022-09-03T03:52:38;101692.34;;;14.02;73.38
57102;BME280;42982;54.558;18.508;2022-09-03T03:53:41;101700.19;;;13.98;73.85
57102;BME280;42982;54.558;18.508;2022-09-03T03:54:45;101690.47;;;13.97;74.09
57102;BME280;42982;54.558;18.508;2022-09-03T03:55:58;101681.81;;;13.90;74.68
57102;BME280;42982;54.558;18.508;2022-09-03T03:57:01;101684.81;;;13.88;75.02
57102;BME280;42982;54.558;18.508;2022-09-03T03:58:06;101685.59;;;13.89;74.84
57102;BME280;42982;54.558;18.508;2022-09-03T03:59:09;101683.97;;;13.93;74.97
57102;BME280;42982;54.558;18.508;2022-09-03T04:00:12;101695.88;;;13.92;75.05
57102;BME280;42982;54.558;18.508;2022-09-03T04:01:24;101691.56;;;13.91;74.96
57102;BME280;42982;54.558;18.508;2022-09-03T04:02:27;101691.00;;;13.89;75.15
57102;BME280;42982;54.558;18.508;2022-09-03T04:03:35;101691.56;;;13.91;75.05
57102;BME280;42982;54.558;18.508;2022-09-03T04:04:42;101688.31;;;13.89;75.10
57102;BME280;42982;54.558;18.508;2022-09-03T04:05:58;101690.47;;;13.87;75.30
57102;BME280;42982;54.558;18.508;2022-09-03T04:07:02;101693.16;;;13.87;75.23
57102;BME280;42982;54.558;18.508;2022-09-03T04:08:07;101691.56;;;13.86;75.23
57102;BME280;42982;54.558;18.508;2022-09-03T04:09:20;101677.22;;;13.85;75.03
57102;BME280;42982;54.558;18.508;2022-09-03T04:10:23;101689.41;;;13.88;75.23
57102;BME280;42982;54.558;18.508;2022-09-03T04:11:28;101678.59;;;13.83;75.19
57102;BME280;42982;54.558;18.508;2022-09-03T04:12:33;101679.13;;;13.85;74.79
57102;BME280;42982;54.558;18.508;2022-09-03T04:13:40;101685.06;;;13.87;74.66
57102;BME280;42982;54.558;18.508;2022-09-03T04:14:43;101686.16;;;13.91;74.88
57102;BME280;42982;54.558;18.508;2022-09-03T04:15:50;101676.16;;;13.91;74.47
57102;BME280;42982;54.558;18.508;2022-09-03T04:16:55;101689.91;;;13.90;74.23
57102;BME280;42982;54.558;18.508;2022-09-03T04:17:57;101686.41;;;13.89;74.32
57102;BME280;42982;54.558;18.508;2022-09-03T04:19:06;101677.50;;;13.84;74.40
57102;BME280;42982;54.558;18.508;2022-09-03T04:20:09;101689.13;;;13.89;73.90
57102;BME280;42982;54.558;18.508;2022-09-03T04:21:12;101684.53;;;13.85;73.95
57102;BME280;42982;54.558;18.508;2022-09-03T04:22:18;101679.94;;;13.85;73.97
57102;BME280;42982;54.558;18.508;2022-09-03T04:23:23;101678.03;;;13.91;73.79
57102;BME280;42982;54.558;18.508;2022-09-03T04:24:29;101684.50;;;13.95;73.63
57102;BME280;42982;54.558;18.508;2022-09-03T04:25:33;101681.81;;;13.95;73.41
57102;BME280;42982;54.558;18.508;2022-09-03T04:26:40;101680.47;;;13.93;73.46
57102;BME280;42982;54.558;18.508;2022-09-03T04:27:43;101683.16;;;13.93;73.50
57102;BME280;42982;54.558;18.508;2022-09-03T04:28:45;101680.72;;;13.96;73.41
57102;BME280;42982;54.558;18.508;2022-09-03T04:29:50;101687.22;;;14.00;73.21
57102;BME280;42982;54.558;18.508;2022-09-03T04:30:53;101688.84;;;14.01;72.77
57102;BME280;42982;54.558;18.508;2022-09-03T04:31:56;101688.84;;;14.01;72.60
57102;BME280;42982;54.558;18.508;2022-09-03T04:33:23;101681.25;;;14.03;72.39
57102;BME280;42982;54.558;18.508;2022-09-03T04:34:28;101683.41;;;14.06;72.23
57102;BME280;42982;54.558;18.508;2022-09-03T04:35:34;101676.91;;;14.07;72.05
57102;BME280;42982;54.558;18.508;2022-09-03T04:36:39;101676.91;;;14.07;71.51
57102;BME280;42982;54.558;18.508;2022-09-03T04:37:43;101681.78;;;14.10;71.56
57102;BME280;42982;54.558;18.508;2022-09-03T04:38:52;101678.28;;;14.10;70.99
57102;BME280;42982;54.558;18.508;2022-09-03T04:39:59;101679.88;;;14.11;71.00
57102;BME280;42982;54.558;18.508;2022-09-03T04:41:09;101675.56;;;14.10;71.30
57102;BME280;42982;54.558;18.508;2022-09-03T04:42:15;101681.78;;;14.10;71.30
57102;BME280;42982;54.558;18.508;2022-09-03T04:43:20;101685.28;;;14.16;71.73
57102;BME280;42982;54.558;18.508;2022-09-03T04:44:25;101674.97;;;14.18;71.68
57102;BME280;42982;54.558;18.508;2022-09-03T04:45:35;101676.06;;;14.17;72.21
57102;BME280;42982;54.558;18.508;2022-09-03T04:46:40;101681.22;;;14.19;72.45
57102;BME280;42982;54.558;18.508;2022-09-03T04:47:55;101676.88;;;14.23;72.64
57102;BME280;42982;54.558;18.508;2022-09-03T04:48:56;101680.09;;;14.25;72.53
57102;BME280;42982;54.558;18.508;2022-09-03T04:50:02;101681.19;;;14.24;72.71
57102;BME280;42982;54.558;18.508;2022-09-03T04:51:14;101681.19;;;14.24;72.83
57102;BME280;42982;54.558;18.508;2022-09-03T04:52:17;101679.84;;;14.26;72.92
57102;BME280;42982;54.558;18.508;2022-09-03T04:53:26;101686.84;;;14.32;72.84
57102;BME280;42982;54.558;18.508;2022-09-03T04:54:33;101672.22;;;14.33;73.21
57102;BME280;42982;54.558;18.508;2022-09-03T04:55:38;101686.00;;;14.37;73.16
57102;BME280;42982;54.558;18.508;2022-09-03T04:56:50;101681.94;;;14.40;72.96
57102;BME280;42982;54.558;18.508;2022-09-03T04:57:54;101676.28;;;14.41;72.82
57102;BME280;42982;54.558;18.508;2022-09-03T04:59:03;101678.97;;;14.41;72.60
57102;BME280;42982;54.558;18.508;2022-09-03T05:00:06;101674.38;;;14.42;72.24
57102;BME280;42982;54.558;18.508;2022-09-03T05:01:19;101678.44;;;14.39;72.64
57102;BME280;42982;54.558;18.508;2022-09-03T05:02:24;101681.69;;;14.41;72.25
57102;BME280;42982;54.558;18.508;2022-09-03T05:03:26;101676.28;;;14.41;72.20
57102;BME280;42982;54.558;18.508;2022-09-03T05:04:33;101680.06;;;14.40;72.09
57102;BME280;42982;54.558;18.508;2022-09-03T05:05:50;101685.47;;;14.40;72.19
57102;BME280;42982;54.558;18.508;2022-09-03T05:06:52;101685.47;;;14.40;71.92
57102;BME280;42982;54.558;18.508;2022-09-03T05:08:00;101681.69;;;14.41;72.09
57102;BME280;42982;54.558;18.508;2022-09-03T05:09:03;101688.72;;;14.42;72.21
57102;BME280;42982;54.558;18.508;2022-09-03T05:10:07;101683.56;;;14.46;71.92
57102;BME280;42982;54.558;18.508;2022-09-03T05:11:14;101677.88;;;14.47;72.18
57102;BME280;42982;54.558;18.508;2022-09-03T05:12:16;101687.09;;;14.51;71.96
57102;BME280;42982;54.558;18.508;2022-09-03T05:13:18;101690.03;;;14.50;72.40
57102;BME280;42982;54.558;18.508;2022-09-03T05:14:20;101689.50;;;14.53;72.37
57102;BME280;42982;54.558;18.508;2022-09-03T05:15:24;101688.44;;;14.54;72.57
57102;BME280;42982;54.558;18.508;2022-09-03T05:16:28;101688.44;;;14.54;72.45
57102;BME280;42982;54.558;18.508;2022-09-03T05:17:31;101685.44;;;14.55;72.65
57102;BME280;42982;54.558;18.508;2022-09-03T05:18:36;101692.50;;;14.56;72.52
57102;BME280;42982;54.558;18.508;2022-09-03T05:19:43;101688.94;;;14.56;72.56
57102;BME280;42982;54.558;18.508;2022-09-03T05:20:45;101688.94;;;14.56;72.55
57102;BME280;42982;54.558;18.508;2022-09-03T05:21:48;101684.91;;;14.53;72.45
57102;BME280;42982;54.558;18.508;2022-09-03T05:22:55;101683.53;;;14.56;72.48
57102;BME280;42982;54.558;18.508;2022-09-03T05:23:58;101685.97;;;14.57;72.47
57102;BME280;42982;54.558;18.508;2022-09-03T05:25:07;101692.94;;;14.69;71.86
57102;BME280;42982;54.558;18.508;2022-09-03T05:26:22;101692.84;;;14.89;71.42
57102;BME280;42982;54.558;18.508;2022-09-03T05:27:25;101701.38;;;15.51;70.48
57102;BME280;42982;54.558;18.508;2022-09-03T05:28:29;101690.13;;;15.68;69.85
57102;BME280;42982;54.558;18.508;2022-09-03T05:29:32;101693.47;;;15.55;69.38
57102;BME280;42982;54.558;18.508;2022-09-03T05:30:36;101698.41;;;15.47;69.18
57102;BME280;42982;54.558;18.508;2022-09-03T05:31:41;101691.38;;;15.46;69.25
57102;BME280;42982;54.558;18.508;2022-09-03T05:32:46;101691.78;;;15.64;68.74
57102;BME280;42982;54.558;18.508;2022-09-03T05:33:56;101687.50;;;15.58;68.67
57102;BME280;42982;54.558;18.508;2022-09-03T05:35:05;101693.25;;;15.51;68.41
57102;BME280;42982;54.558;18.508;2022-09-03T05:36:12;101700.59;;;15.45;68.62
57102;BME280;42982;54.558;18.508;2022-09-03T05:37:14;101697.13;;;15.40;68.71
57102;BME280;42982;54.558;18.508;2022-09-03T05:38:27;101701.25;;;15.32;68.17
57102;BME280;42982;54.558;18.508;2022-09-03T05:39:29;101695.88;;;15.22;68.09
57102;BME280;42982;54.558;18.508;2022-09-03T05:40:31;101701.34;;;15.17;68.21
57102;BME280;42982;54.558;18.508;2022-09-03T05:41:38;101701.91;;;15.14;68.21
57102;BME280;42982;54.558;18.508;2022-09-03T05:42:42;101707.59;;;15.12;68.15
57102;BME280;42982;54.558;18.508;2022-09-03T05:43:48;101708.16;;;15.09;67.80
57102;BME280;42982;54.558;18.508;2022-09-03T05:45:05;101703.31;;;15.06;67.77
57102;BME280;42982;54.558;18.508;2022-09-03T05:46:17;101704.09;;;15.06;68.11
57102;BME280;42982;54.558;18.508;2022-09-03T05:47:22;101710.09;;;15.03;67.95
57102;BME280;42982;54.558;18.508;2022-09-03T05:48:28;101704.41;;;15.05;68.17
57102;BME280;42982;54.558;18.508;2022-09-03T05:49:34;101705.22;;;15.05;67.88
57102;BME280;42982;54.558;18.508;2022-09-03T05:50:40;101707.66;;;15.02;67.83
57102;BME280;42982;54.558;18.508;2022-09-03T05:51:44;101706.31;;;15.04;68.02
57102;BME280;42982;54.558;18.508;2022-09-03T05:52:52;101709.00;;;15.04;67.76
57102;BME280;42982;54.558;18.508;2022-09-03T05:53:56;101701.97;;;15.03;67.80
57102;BME280;42982;54.558;18.508;2022-09-03T05:54:58;101703.88;;;15.03;68.00
57102;BME280;42982;54.558;18.508;2022-09-03T05:56:07;101713.91;;;15.02;67.61
57102;BME280;42982;54.558;18.508;2022-09-03T05:57:18;101704.16;;;15.01;67.44
57102;BME280;42982;54.558;18.508;2022-09-03T05:58:20;101706.06;;;15.01;67.73
57102;BME280;42982;54.558;18.508;2022-09-03T05:59:23;101704.97;;;15.02;67.64
57102;BME280;42982;54.558;18.508;2022-09-03T06:00:26;101706.88;;;15.01;67.96
57102;BME280;42982;54.558;18.508;2022-09-03T06:01:33;101711.19;;;15.02;67.71
57102;BME280;42982;54.558;18.508;2022-09-03T06:02:36;101709.56;;;15.01;67.89
57102;BME280;42982;54.558;18.508;2022-09-03T06:03:45;101709.56;;;15.01;67.57
57102;BME280;42982;54.558;18.508;2022-09-03T06:04:53;101710.13;;;14.98;67.90
57102;BME280;42982;54.558;18.508;2022-09-03T06:05:58;101713.66;;;14.99;67.39
57102;BME280;42982;54.558;18.508;2022-09-03T06:07:00;101713.91;;;14.97;67.51
57102;BME280;42982;54.558;18.508;2022-09-03T06:08:05;101715.84;;;14.92;67.56
57102;BME280;42982;54.558;18.508;2022-09-03T06:09:12;101712.63;;;14.90;67.68
57102;BME280;42982;54.558;18.508;2022-09-03T06:10:19;101713.16;;;14.92;67.90
57102;BME280;42982;54.558;18.508;2022-09-03T06:11:21;101715.56;;;14.93;67.79
57102;BME280;42982;54.558;18.508;2022-09-03T06:12:34;101708.50;;;14.97;67.95
57102;BME280;42982;54.558;18.508;2022-09-03T06:13:41;101712.03;;;14.98;67.68
57102;BME280;42982;54.558;18.508;2022-09-03T06:14:43;101715.56;;;14.98;67.86
57102;BME280;42982;54.558;18.508;2022-09-03T06:15:49;101714.19;;;15.01;67.90
57102;BME280;42982;54.558;18.508;2022-09-03T06:16:59;101716.91;;;15.01;67.74
57102;BME280;42982;54.558;18.508;2022-09-03T06:18:04;101716.59;;;15.02;67.64
57102;BME280;42982;54.558;18.508;2022-09-03T06:19:10;101716.59;;;15.02;67.89
57102;BME280;42982;54.558;18.508;2022-09-03T06:20:19;101716.34;;;15.04;67.93
57102;BME280;42982;54.558;18.508;2022-09-03T06:21:22;101719.84;;;15.04;67.98
57102;BME280;42982;54.558;18.508;2022-09-03T06:22:28;101720.91;;;15.03;68.07
57102;BME280;42982;54.558;18.508;2022-09-03T06:23:33;101713.63;;;15.04;68.33
57102;BME280;42982;54.558;18.508;2022-09-03T06:24:38;101714.75;;;14.98;67.02
57102;BME280;42982;54.558;18.508;2022-09-03T06:25:45;101718.28;;;14.93;66.21
57102;BME280;42982;54.558;18.508;2022-09-03T06:26:50;101722.91;;;14.88;65.78
57102;BME280;42982;54.558;18.508;2022-09-03T06:27:55;101709.09;;;14.94;65.88
57102;BME280;42982;54.558;18.508;2022-09-03T06:29:00;101713.41;;;14.95;65.34
57102;BME280;42982;54.558;18.508;2022-09-03T06:30:11;101709.59;;;14.96;65.34
57102;BME280;42982;54.558;18.508;2022-09-03T06:31:18;101709.53;;;15.06;65.41
57102;BME280;42982;54.558;18.508;2022-09-03T06:32:21;101709.53;;;15.06;64.08
57102;BME280;42982;54.558;18.508;2022-09-03T06:33:24;101709.53;;;15.06;63.89
57102;BME280;42982;54.558;18.508;2022-09-03T06:34:32;101720.91;;;15.09;63.98
57102;BME280;42982;54.558;18.508;2022-09-03T06:35:34;101718.44;;;15.12;63.46
57102;BME280;42982;54.558;18.508;2022-09-03T06:36:40;101717.06;;;15.15;63.12
57102;BME280;42982;54.558;18.508;2022-09-03T06:37:44;101722.97;;;15.22;63.51
57102;BME280;42982;54.558;18.508;2022-09-03T06:38:53;101718.63;;;15.26;62.96
57102;BME280;42982;54.558;18.508;2022-09-03T06:40:05;101722.41;;;15.25;61.85
57102;BME280;42982;54.558;18.508;2022-09-03T06:41:19;101730.31;;;15.21;61.61